Prachinburi, Thailand

9:51 AM ICT op 28 november 2014 (GMT +0700)
Bangkok International | Change Station
CLOSE
Current Station
Luchthaven
Location: Bangkok (Don Mueang),
Geometrische hoogte: 13 ft
Nabije weerstations

Hoogte 13 ft 13.92 °N, 100.61 °E | Updated 21 minutes ago

Mostly Cloudy
Merendeels bewolkt
84 °F
Voelt als 94 °F
N
4
Wind Variabel Wind van noord

Vandaag
Hoog -- | Laag -- °F
--% Kans op neerslag
Gisteren
Hoog -- | Laag -- °F
Precip. -- inches
6:20 AM 5:43 PM
Wassende halvemaan, 35% visible
Druk 29.89 inches
Zicht 4.3 mijlen
Wolken Gering 1500 ft
Merendeels bewolkt 30000 ft
Warmteindex 94 °F
Dauwpunt 77 °F
Vochtigheid 79%
Neerslag 0.00 inches
Dikte sneeuw Niet beschikbaar.
UV 4 van de 12
Pollen Niet beschikbaar.
Luchtkwaliteit Niet beschikbaar.
Flu Activity Niet beschikbaar.
METAR VTBD 280230Z 36003KT 7000 FEW015 BKN300 29/25 Q1012 NOSIG

More Conditions Fewer Conditions

Druk 29.89 inches
Zicht 4.3 mijlen
Wolken Gering 1500 ft
Merendeels bewolkt 30000 ft
Warmteindex 94 °F
Dauwpunt 77 °F
Vochtigheid 79%
Neerslag 0.00 inches
Dikte sneeuw Niet beschikbaar.
UV 4 van de 12
Pollen Niet beschikbaar.
Luchtkwaliteit Niet beschikbaar.
Flu Activity Niet beschikbaar.
METAR VTBD 280230Z 36003KT 7000 FEW015 BKN300 29/25 Q1012 NOSIG

More Conditions Fewer Conditions

10-Day Weather Forecast

Almanac

Astronomie

Nov. 28, 2014 Opkomst Ondergang
Werkelijke tijd
Burgerlijke schemering
Nautische schemering
Astronomische schemering
Maan
Golflengte van het zichtbare licht
Daglengte
Tomorrow will be .
, % of the Moon is Illuminated

Extremen vandaag

Country Highs Country Lows

Community

WunderPhotos

Upload Photos

1,774,164 foto’s ge-upload!

WunderBlogs® & News

Nearby

Luchtkwaliteit

  Luchtkwaliteit LK-index Verontreinigende stof
Not available.

Dikte sneeuw

Station Depth Geometrische hoogte

Aardbevingen

Stad Distance Mag. Time & Date
Minimum magnitude displayed is 2.5.

Watertemperatuur langs de kust

Plaats Temperatuur

Nabije weerstations